Terminal Aerodrome Forecast
Issued by NWS La Crosse, WI

Home | Current Version | Previous Version | Text Only | Print | Product List | Glossary On
Versions: 1 2 3 4 5 6 7 8 9 10 11 12 13 14 15 16 17
000
FTUS43 KARX 261806 CCA
TAFLSE
TAF COR
KLSE 261806Z 2618/2718 32013KT P6SM VCSH OVC008
     FM262000 32011KT P6SM OVC010
     FM270200 32010KT P6SM OVC008
     FM271300 31010KT P6SM OVC012
     FM271600 30013KT P6SM BKN020=

USA.gov is the U.S. government's official web portal to all federal, state and local government web resources and services.